sensor_id;sensor_type;location;lat;lon;timestamp;P1;durP1;ratioP1;P2;durP2;ratioP2
67941;SDS011;54731;42.600;23.476;2022-10-22T00:01:30;25.40;;;14.43;;
67941;SDS011;54731;42.600;23.476;2022-10-22T00:03:56;23.17;;;13.73;;
67941;SDS011;54731;42.600;23.476;2022-10-22T00:06:22;18.93;;;11.47;;
67941;SDS011;54731;42.600;23.476;2022-10-22T00:08:47;14.63;;;10.90;;
67941;SDS011;54731;42.600;23.476;2022-10-22T00:11:13;33.97;;;18.43;;
67941;SDS011;54731;42.600;23.476;2022-10-22T00:13:40;31.70;;;16.60;;
67941;SDS011;54731;42.600;23.476;2022-10-22T00:16:06;22.80;;;10.77;;
67941;SDS011;54731;42.600;23.476;2022-10-22T00:18:32;15.87;;;10.00;;
67941;SDS011;54731;42.600;23.476;2022-10-22T00:20:57;19.67;;;10.83;;
67941;SDS011;54731;42.600;23.476;2022-10-22T00:23:22;16.70;;;9.90;;
67941;SDS011;54731;42.600;23.476;2022-10-22T00:25:48;18.23;;;10.37;;
67941;SDS011;54731;42.600;23.476;2022-10-22T00:28:13;17.13;;;9.87;;
67941;SDS011;54731;42.600;23.476;2022-10-22T00:30:38;15.20;;;10.20;;
67941;SDS011;54731;42.600;23.476;2022-10-22T00:33:04;15.93;;;9.33;;
67941;SDS011;54731;42.600;23.476;2022-10-22T00:35:29;17.10;;;10.10;;
67941;SDS011;54731;42.600;23.476;2022-10-22T00:37:54;17.83;;;11.17;;
67941;SDS011;54731;42.600;23.476;2022-10-22T00:40:20;17.77;;;11.17;;
67941;SDS011;54731;42.600;23.476;2022-10-22T00:42:45;15.63;;;10.73;;
67941;SDS011;54731;42.600;23.476;2022-10-22T00:47:40;16.85;;;10.13;;
67941;SDS011;54731;42.600;23.476;2022-10-22T00:52:55;15.57;;;9.82;;
67941;SDS011;54731;42.600;23.476;2022-10-22T00:55:22;15.75;;;10.27;;
67941;SDS011;54731;42.600;23.476;2022-10-22T00:57:49;17.55;;;10.07;;
67941;SDS011;54731;42.600;23.476;2022-10-22T01:00:16;16.23;;;10.40;;
67941;SDS011;54731;42.600;23.476;2022-10-22T01:02:42;19.30;;;10.30;;
67941;SDS011;54731;42.600;23.476;2022-10-22T01:05:07;17.70;;;10.50;;
67941;SDS011;54731;42.600;23.476;2022-10-22T01:07:34;20.23;;;11.00;;
67941;SDS011;54731;42.600;23.476;2022-10-22T01:10:24;16.73;;;10.95;;
67941;SDS011;54731;42.600;23.476;2022-10-22T01:21:06;19.10;;;9.60;;
67941;SDS011;54731;42.600;23.476;2022-10-22T01:31:56;14.35;;;9.00;;
67941;SDS011;54731;42.600;23.476;2022-10-22T01:34:25;14.43;;;8.93;;
67941;SDS011;54731;42.600;23.476;2022-10-22T01:36:52;13.88;;;9.63;;
67941;SDS011;54731;42.600;23.476;2022-10-22T01:39:19;17.98;;;10.93;;
67941;SDS011;54731;42.600;23.476;2022-10-22T01:41:46;19.40;;;10.27;;
67941;SDS011;54731;42.600;23.476;2022-10-22T01:47:10;16.50;;;9.40;;
67941;SDS011;54731;42.600;23.476;2022-10-22T01:54:39;13.00;;;9.00;;
67941;SDS011;54731;42.600;23.476;2022-10-22T01:57:16;15.15;;;9.57;;
67941;SDS011;54731;42.600;23.476;2022-10-22T02:00:06;14.93;;;9.27;;
67941;SDS011;54731;42.600;23.476;2022-10-22T02:02:48;14.07;;;9.03;;
67941;SDS011;54731;42.600;23.476;2022-10-22T02:05:23;13.82;;;9.15;;
67941;SDS011;54731;42.600;23.476;2022-10-22T02:07:51;11.57;;;8.60;;
67941;SDS011;54731;42.600;23.476;2022-10-22T02:10:21;17.30;;;9.48;;
67941;SDS011;54731;42.600;23.476;2022-10-22T02:12:49;13.77;;;8.88;;
67941;SDS011;54731;42.600;23.476;2022-10-22T02:15:18;16.33;;;10.07;;
67941;SDS011;54731;42.600;23.476;2022-10-22T02:17:45;12.50;;;9.15;;
67941;SDS011;54731;42.600;23.476;2022-10-22T02:20:13;17.02;;;9.93;;
67941;SDS011;54731;42.600;23.476;2022-10-22T02:22:43;16.05;;;9.10;;
67941;SDS011;54731;42.600;23.476;2022-10-22T02:25:09;13.30;;;8.67;;
67941;SDS011;54731;42.600;23.476;2022-10-22T02:27:57;15.52;;;10.27;;
67941;SDS011;54731;42.600;23.476;2022-10-22T02:30:31;14.02;;;9.23;;
67941;SDS011;54731;42.600;23.476;2022-10-22T02:33:06;16.85;;;9.73;;
67941;SDS011;54731;42.600;23.476;2022-10-22T02:35:32;14.13;;;9.52;;
67941;SDS011;54731;42.600;23.476;2022-10-22T02:37:58;12.07;;;9.25;;
67941;SDS011;54731;42.600;23.476;2022-10-22T02:40:25;13.52;;;9.25;;
67941;SDS011;54731;42.600;23.476;2022-10-22T02:42:52;15.77;;;9.20;;
67941;SDS011;54731;42.600;23.476;2022-10-22T02:45:18;18.53;;;9.77;;
67941;SDS011;54731;42.600;23.476;2022-10-22T02:47:44;17.77;;;10.20;;
67941;SDS011;54731;42.600;23.476;2022-10-22T02:50:09;15.90;;;10.90;;
67941;SDS011;54731;42.600;23.476;2022-10-22T02:52:35;17.92;;;10.13;;
67941;SDS011;54731;42.600;23.476;2022-10-22T02:55:01;13.13;;;9.07;;
67941;SDS011;54731;42.600;23.476;2022-10-22T02:57:26;13.90;;;9.43;;
67941;SDS011;54731;42.600;23.476;2022-10-22T02:59:51;15.30;;;10.02;;
67941;SDS011;54731;42.600;23.476;2022-10-22T03:02:17;14.27;;;9.10;;
67941;SDS011;54731;42.600;23.476;2022-10-22T03:04:42;16.77;;;10.23;;
67941;SDS011;54731;42.600;23.476;2022-10-22T03:07:07;13.80;;;8.93;;
67941;SDS011;54731;42.600;23.476;2022-10-22T03:09:33;15.47;;;10.03;;
67941;SDS011;54731;42.600;23.476;2022-10-22T03:11:58;18.07;;;9.67;;
67941;SDS011;54731;42.600;23.476;2022-10-22T03:14:23;18.07;;;9.27;;
67941;SDS011;54731;42.600;23.476;2022-10-22T03:16:49;14.17;;;9.43;;
67941;SDS011;54731;42.600;23.476;2022-10-22T03:19:14;12.38;;;8.75;;
67941;SDS011;54731;42.600;23.476;2022-10-22T03:21:41;14.47;;;9.03;;
67941;SDS011;54731;42.600;23.476;2022-10-22T03:24:12;14.88;;;9.65;;
67941;SDS011;54731;42.600;23.476;2022-10-22T03:26:41;15.65;;;9.80;;
67941;SDS011;54731;42.600;23.476;2022-10-22T03:29:09;14.27;;;9.13;;
67941;SDS011;54731;42.600;23.476;2022-10-22T03:31:37;17.30;;;9.32;;
67941;SDS011;54731;42.600;23.476;2022-10-22T03:34:02;15.37;;;9.77;;
67941;SDS011;54731;42.600;23.476;2022-10-22T03:36:28;12.73;;;9.07;;
67941;SDS011;54731;42.600;23.476;2022-10-22T03:38:53;14.68;;;9.18;;
67941;SDS011;54731;42.600;23.476;2022-10-22T03:41:20;16.73;;;9.70;;
67941;SDS011;54731;42.600;23.476;2022-10-22T03:43:45;15.25;;;9.57;;
67941;SDS011;54731;42.600;23.476;2022-10-22T03:46:11;14.07;;;8.37;;
67941;SDS011;54731;42.600;23.476;2022-10-22T03:48:36;12.37;;;8.73;;
67941;SDS011;54731;42.600;23.476;2022-10-22T03:51:01;14.07;;;9.70;;
67941;SDS011;54731;42.600;23.476;2022-10-22T03:53:27;14.63;;;9.13;;
67941;SDS011;54731;42.600;23.476;2022-10-22T03:55:52;19.80;;;9.93;;
67941;SDS011;54731;42.600;23.476;2022-10-22T03:58:17;26.55;;;10.88;;
67941;SDS011;54731;42.600;23.476;2022-10-22T04:00:43;16.30;;;9.20;;
67941;SDS011;54731;42.600;23.476;2022-10-22T04:03:08;21.27;;;10.53;;
67941;SDS011;54731;42.600;23.476;2022-10-22T04:05:33;19.63;;;11.50;;
67941;SDS011;54731;42.600;23.476;2022-10-22T04:07:59;16.77;;;10.30;;
67941;SDS011;54731;42.600;23.476;2022-10-22T04:10:24;14.93;;;10.00;;
67941;SDS011;54731;42.600;23.476;2022-10-22T04:12:49;16.53;;;10.57;;
67941;SDS011;54731;42.600;23.476;2022-10-22T04:15:15;16.30;;;9.95;;
67941;SDS011;54731;42.600;23.476;2022-10-22T04:17:40;19.30;;;10.30;;
67941;SDS011;54731;42.600;23.476;2022-10-22T04:20:06;18.03;;;10.20;;
67941;SDS011;54731;42.600;23.476;2022-10-22T04:22:32;19.58;;;10.88;;
67941;SDS011;54731;42.600;23.476;2022-10-22T04:24:58;16.02;;;10.07;;
67941;SDS011;54731;42.600;23.476;2022-10-22T04:27:24;17.98;;;9.88;;
67941;SDS011;54731;42.600;23.476;2022-10-22T04:29:49;14.80;;;9.47;;
67941;SDS011;54731;42.600;23.476;2022-10-22T04:32:14;16.03;;;11.07;;
67941;SDS011;54731;42.600;23.476;2022-10-22T04:34:39;18.53;;;10.83;;
67941;SDS011;54731;42.600;23.476;2022-10-22T04:37:05;20.23;;;10.87;;
67941;SDS011;54731;42.600;23.476;2022-10-22T04:39:30;18.17;;;9.17;;
67941;SDS011;54731;42.600;23.476;2022-10-22T04:41:55;14.17;;;9.90;;
67941;SDS011;54731;42.600;23.476;2022-10-22T04:44:21;20.17;;;10.43;;
67941;SDS011;54731;42.600;23.476;2022-10-22T04:46:46;19.33;;;10.87;;
67941;SDS011;54731;42.600;23.476;2022-10-22T04:49:11;19.95;;;11.20;;
67941;SDS011;54731;42.600;23.476;2022-10-22T04:51:37;21.23;;;11.95;;
67941;SDS011;54731;42.600;23.476;2022-10-22T04:54:02;20.07;;;12.10;;
67941;SDS011;54731;42.600;23.476;2022-10-22T04:56:29;20.20;;;12.37;;
67941;SDS011;54731;42.600;23.476;2022-10-22T04:58:59;18.52;;;11.57;;
67941;SDS011;54731;42.600;23.476;2022-10-22T05:01:27;23.70;;;12.07;;
67941;SDS011;54731;42.600;23.476;2022-10-22T05:04:00;20.42;;;12.32;;
67941;SDS011;54731;42.600;23.476;2022-10-22T05:06:27;19.50;;;11.75;;
67941;SDS011;54731;42.600;23.476;2022-10-22T05:08:55;23.60;;;11.77;;
67941;SDS011;54731;42.600;23.476;2022-10-22T05:11:24;23.52;;;12.13;;
67941;SDS011;54731;42.600;23.476;2022-10-22T05:13:51;25.17;;;14.52;;
67941;SDS011;54731;42.600;23.476;2022-10-22T05:16:16;24.63;;;14.30;;
67941;SDS011;54731;42.600;23.476;2022-10-22T05:18:42;23.63;;;14.50;;
67941;SDS011;54731;42.600;23.476;2022-10-22T05:21:09;24.48;;;15.25;;
67941;SDS011;54731;42.600;23.476;2022-10-22T05:23:36;58.70;;;30.77;;
67941;SDS011;54731;42.600;23.476;2022-10-22T05:26:02;122.50;;;48.63;;
67941;SDS011;54731;42.600;23.476;2022-10-22T05:28:30;130.27;;;53.50;;
67941;SDS011;54731;42.600;23.476;2022-10-22T05:30:56;38.93;;;20.83;;
67941;SDS011;54731;42.600;23.476;2022-10-22T05:33:22;27.58;;;19.02;;
67941;SDS011;54731;42.600;23.476;2022-10-22T05:35:48;26.60;;;17.87;;
67941;SDS011;54731;42.600;23.476;2022-10-22T05:38:14;28.73;;;16.98;;
67941;SDS011;54731;42.600;23.476;2022-10-22T05:40:40;28.92;;;17.27;;
67941;SDS011;54731;42.600;23.476;2022-10-22T05:43:05;33.43;;;16.27;;
67941;SDS011;54731;42.600;23.476;2022-10-22T05:45:30;30.17;;;16.93;;
67941;SDS011;54731;42.600;23.476;2022-10-22T05:48:00;26.73;;;15.55;;
67941;SDS011;54731;42.600;23.476;2022-10-22T05:50:26;24.87;;;15.20;;
67941;SDS011;54731;42.600;23.476;2022-10-22T05:52:51;26.70;;;15.00;;
67941;SDS011;54731;42.600;23.476;2022-10-22T05:55:16;32.03;;;19.17;;
67941;SDS011;54731;42.600;23.476;2022-10-22T05:57:42;37.93;;;21.60;;
67941;SDS011;54731;42.600;23.476;2022-10-22T06:00:07;35.70;;;20.40;;
67941;SDS011;54731;42.600;23.476;2022-10-22T06:02:33;28.75;;;17.48;;
67941;SDS011;54731;42.600;23.476;2022-10-22T06:04:58;33.60;;;18.27;;
67941;SDS011;54731;42.600;23.476;2022-10-22T06:07:23;27.13;;;16.53;;
67941;SDS011;54731;42.600;23.476;2022-10-22T06:09:49;24.93;;;15.50;;
67941;SDS011;54731;42.600;23.476;2022-10-22T06:12:14;25.40;;;16.15;;
67941;SDS011;54731;42.600;23.476;2022-10-22T06:14:40;28.60;;;16.00;;
67941;SDS011;54731;42.600;23.476;2022-10-22T06:17:05;34.10;;;17.10;;
67941;SDS011;54731;42.600;23.476;2022-10-22T06:19:30;29.07;;;15.83;;
67941;SDS011;54731;42.600;23.476;2022-10-22T06:21:56;29.80;;;16.90;;
67941;SDS011;54731;42.600;23.476;2022-10-22T06:24:21;32.95;;;18.85;;
67941;SDS011;54731;42.600;23.476;2022-10-22T06:26:50;32.50;;;19.35;;
67941;SDS011;54731;42.600;23.476;2022-10-22T06:29:16;27.43;;;16.83;;
67941;SDS011;54731;42.600;23.476;2022-10-22T06:31:41;30.50;;;16.85;;
67941;SDS011;54731;42.600;23.476;2022-10-22T06:34:09;28.97;;;16.70;;
67941;SDS011;54731;42.600;23.476;2022-10-22T06:36:35;26.48;;;15.98;;
67941;SDS011;54731;42.600;23.476;2022-10-22T06:39:02;27.20;;;16.55;;
67941;SDS011;54731;42.600;23.476;2022-10-22T06:41:27;31.08;;;16.80;;
67941;SDS011;54731;42.600;23.476;2022-10-22T06:43:53;28.73;;;17.17;;
67941;SDS011;54731;42.600;23.476;2022-10-22T06:46:19;30.73;;;18.23;;
67941;SDS011;54731;42.600;23.476;2022-10-22T06:49:19;29.42;;;16.45;;
67941;SDS011;54731;42.600;23.476;2022-10-22T06:51:38;28.90;;;16.17;;
67941;SDS011;54731;42.600;23.476;2022-10-22T06:54:03;27.73;;;16.43;;
67941;SDS011;54731;42.600;23.476;2022-10-22T06:56:29;28.63;;;17.38;;
67941;SDS011;54731;42.600;23.476;2022-10-22T06:58:55;29.17;;;17.17;;
67941;SDS011;54731;42.600;23.476;2022-10-22T07:01:22;34.10;;;17.88;;
67941;SDS011;54731;42.600;23.476;2022-10-22T07:03:50;35.92;;;18.08;;
67941;SDS011;54731;42.600;23.476;2022-10-22T07:06:16;26.35;;;17.17;;
67941;SDS011;54731;42.600;23.476;2022-10-22T07:08:42;41.83;;;21.03;;
67941;SDS011;54731;42.600;23.476;2022-10-22T07:11:09;31.00;;;18.73;;
67941;SDS011;54731;42.600;23.476;2022-10-22T07:13:36;30.08;;;16.90;;
67941;SDS011;54731;42.600;23.476;2022-10-22T07:16:01;30.58;;;16.58;;
67941;SDS011;54731;42.600;23.476;2022-10-22T07:18:27;27.55;;;17.35;;
67941;SDS011;54731;42.600;23.476;2022-10-22T07:20:53;27.03;;;17.73;;
67941;SDS011;54731;42.600;23.476;2022-10-22T07:23:18;27.43;;;16.87;;
67941;SDS011;54731;42.600;23.476;2022-10-22T07:25:44;28.75;;;16.17;;
67941;SDS011;54731;42.600;23.476;2022-10-22T07:28:09;37.65;;;17.70;;
67941;SDS011;54731;42.600;23.476;2022-10-22T07:30:36;29.60;;;17.40;;
67941;SDS011;54731;42.600;23.476;2022-10-22T07:33:03;28.67;;;16.95;;
67941;SDS011;54731;42.600;23.476;2022-10-22T07:35:29;28.87;;;16.93;;
67941;SDS011;54731;42.600;23.476;2022-10-22T07:37:54;28.53;;;16.93;;
67941;SDS011;54731;42.600;23.476;2022-10-22T07:40:20;25.52;;;16.00;;
67941;SDS011;54731;42.600;23.476;2022-10-22T07:42:45;28.93;;;16.63;;
67941;SDS011;54731;42.600;23.476;2022-10-22T07:45:10;25.13;;;15.93;;
67941;SDS011;54731;42.600;23.476;2022-10-22T07:47:36;26.60;;;16.43;;
67941;SDS011;54731;42.600;23.476;2022-10-22T07:50:01;33.27;;;16.37;;
67941;SDS011;54731;42.600;23.476;2022-10-22T07:52:27;34.33;;;18.25;;
67941;SDS011;54731;42.600;23.476;2022-10-22T07:54:53;31.30;;;17.17;;
67941;SDS011;54731;42.600;23.476;2022-10-22T07:57:18;29.60;;;17.67;;
67941;SDS011;54731;42.600;23.476;2022-10-22T07:59:43;31.33;;;18.20;;
67941;SDS011;54731;42.600;23.476;2022-10-22T08:02:12;32.33;;;18.85;;
67941;SDS011;54731;42.600;23.476;2022-10-22T08:04:38;30.52;;;18.00;;
67941;SDS011;54731;42.600;23.476;2022-10-22T08:07:04;30.52;;;18.42;;
67941;SDS011;54731;42.600;23.476;2022-10-22T08:09:29;31.40;;;16.30;;
67941;SDS011;54731;42.600;23.476;2022-10-22T08:11:55;25.53;;;16.53;;
67941;SDS011;54731;42.600;23.476;2022-10-22T08:14:20;22.95;;;15.48;;
67941;SDS011;54731;42.600;23.476;2022-10-22T08:16:46;26.40;;;15.87;;
67941;SDS011;54731;42.600;23.476;2022-10-22T08:19:11;29.73;;;16.10;;
67941;SDS011;54731;42.600;23.476;2022-10-22T08:21:37;35.60;;;17.40;;
67941;SDS011;54731;42.600;23.476;2022-10-22T08:24:02;21.00;;;14.23;;
67941;SDS011;54731;42.600;23.476;2022-10-22T08:26:27;24.33;;;15.63;;
67941;SDS011;54731;42.600;23.476;2022-10-22T08:28:53;28.03;;;14.90;;
67941;SDS011;54731;42.600;23.476;2022-10-22T08:31:18;23.73;;;15.23;;
67941;SDS011;54731;42.600;23.476;2022-10-22T08:33:43;27.97;;;16.23;;
67941;SDS011;54731;42.600;23.476;2022-10-22T08:36:09;30.57;;;16.27;;
67941;SDS011;54731;42.600;23.476;2022-10-22T08:38:34;20.73;;;14.63;;
67941;SDS011;54731;42.600;23.476;2022-10-22T08:41:21;24.85;;;15.10;;
67941;SDS011;54731;42.600;23.476;2022-10-22T08:49:37;22.58;;;14.68;;
67941;SDS011;54731;42.600;23.476;2022-10-22T08:52:04;25.80;;;13.30;;
67941;SDS011;54731;42.600;23.476;2022-10-22T08:54:35;20.50;;;13.90;;
67941;SDS011;54731;42.600;23.476;2022-10-22T08:57:21;21.58;;;13.52;;
67941;SDS011;54731;42.600;23.476;2022-10-22T09:08:38;24.50;;;14.13;;
67941;SDS011;54731;42.600;23.476;2022-10-22T09:13:31;25.77;;;14.95;;
67941;SDS011;54731;42.600;23.476;2022-10-22T09:15:59;26.80;;;12.98;;
67941;SDS011;54731;42.600;23.476;2022-10-22T09:18:32;28.10;;;13.90;;
67941;SDS011;54731;42.600;23.476;2022-10-22T09:21:05;24.37;;;13.13;;
67941;SDS011;54731;42.600;23.476;2022-10-22T09:26:25;20.23;;;12.50;;
67941;SDS011;54731;42.600;23.476;2022-10-22T09:28:50;25.63;;;12.00;;
67941;SDS011;54731;42.600;23.476;2022-10-22T09:31:16;20.08;;;13.00;;
67941;SDS011;54731;42.600;23.476;2022-10-22T09:33:43;23.45;;;13.50;;
67941;SDS011;54731;42.600;23.476;2022-10-22T09:36:17;19.50;;;13.02;;
67941;SDS011;54731;42.600;23.476;2022-10-22T09:38:47;19.38;;;13.18;;
67941;SDS011;54731;42.600;23.476;2022-10-22T09:41:14;24.77;;;13.45;;
67941;SDS011;54731;42.600;23.476;2022-10-22T09:43:40;27.90;;;14.07;;
67941;SDS011;54731;42.600;23.476;2022-10-22T09:46:06;20.33;;;12.17;;
67941;SDS011;54731;42.600;23.476;2022-10-22T09:48:42;19.25;;;11.88;;
67941;SDS011;54731;42.600;23.476;2022-10-22T09:52:01;19.13;;;12.05;;
67941;SDS011;54731;42.600;23.476;2022-10-22T09:54:22;17.52;;;11.75;;
67941;SDS011;54731;42.600;23.476;2022-10-22T09:57:02;20.38;;;12.55;;
67941;SDS011;54731;42.600;23.476;2022-10-22T09:59:30;19.40;;;13.17;;
67941;SDS011;54731;42.600;23.476;2022-10-22T10:02:23;26.80;;;13.95;;
67941;SDS011;54731;42.600;23.476;2022-10-22T10:04:49;20.63;;;12.48;;
67941;SDS011;54731;42.600;23.476;2022-10-22T10:07:20;22.75;;;13.10;;
67941;SDS011;54731;42.600;23.476;2022-10-22T10:09:47;23.10;;;13.70;;
67941;SDS011;54731;42.600;23.476;2022-10-22T10:23:10;22.25;;;12.07;;
67941;SDS011;54731;42.600;23.476;2022-10-22T10:34:47;22.20;;;12.85;;
67941;SDS011;54731;42.600;23.476;2022-10-22T10:40:20;19.38;;;12.27;;
67941;SDS011;54731;42.600;23.476;2022-10-22T10:42:59;18.02;;;10.82;;
67941;SDS011;54731;42.600;23.476;2022-10-22T10:45:41;19.63;;;11.57;;
67941;SDS011;54731;42.600;23.476;2022-10-22T10:51:02;16.65;;;10.63;;
67941;SDS011;54731;42.600;23.476;2022-10-22T10:56:36;14.40;;;10.63;;
67941;SDS011;54731;42.600;23.476;2022-10-22T10:59:16;17.33;;;12.35;;
67941;SDS011;54731;42.600;23.476;2022-10-22T11:04:53;18.75;;;12.05;;
67941;SDS011;54731;42.600;23.476;2022-10-22T11:07:46;15.90;;;10.93;;
67941;SDS011;54731;42.600;23.476;2022-10-22T11:13:27;20.05;;;11.32;;
67941;SDS011;54731;42.600;23.476;2022-10-22T11:16:03;16.30;;;11.07;;
67941;SDS011;54731;42.600;23.476;2022-10-22T11:18:47;15.93;;;11.65;;
67941;SDS011;54731;42.600;23.476;2022-10-22T11:24:40;16.50;;;9.93;;
67941;SDS011;54731;42.600;23.476;2022-10-22T11:26:46;21.48;;;11.10;;
67941;SDS011;54731;42.600;23.476;2022-10-22T11:29:26;16.63;;;10.15;;
67941;SDS011;54731;42.600;23.476;2022-10-22T11:31:55;13.30;;;9.90;;
67941;SDS011;54731;42.600;23.476;2022-10-22T11:34:27;15.27;;;10.10;;
67941;SDS011;54731;42.600;23.476;2022-10-22T11:37:02;14.73;;;10.07;;
67941;SDS011;54731;42.600;23.476;2022-10-22T11:41:58;14.23;;;9.52;;
67941;SDS011;54731;42.600;23.476;2022-10-22T11:44:26;15.10;;;9.82;;
67941;SDS011;54731;42.600;23.476;2022-10-22T11:46:54;18.00;;;10.50;;
67941;SDS011;54731;42.600;23.476;2022-10-22T11:49:23;12.98;;;8.38;;
67941;SDS011;54731;42.600;23.476;2022-10-22T11:51:51;12.63;;;9.07;;
67941;SDS011;54731;42.600;23.476;2022-10-22T12:02:21;14.90;;;9.85;;
67941;SDS011;54731;42.600;23.476;2022-10-22T12:04:48;13.07;;;8.68;;
67941;SDS011;54731;42.600;23.476;2022-10-22T12:09:54;19.90;;;9.55;;
67941;SDS011;54731;42.600;23.476;2022-10-22T12:12:22;18.05;;;8.98;;
67941;SDS011;54731;42.600;23.476;2022-10-22T12:14:51;14.23;;;9.20;;
67941;SDS011;54731;42.600;23.476;2022-10-22T12:17:23;17.02;;;9.07;;
67941;SDS011;54731;42.600;23.476;2022-10-22T12:20:06;16.70;;;9.82;;
67941;SDS011;54731;42.600;23.476;2022-10-22T12:22:36;14.98;;;9.63;;
67941;SDS011;54731;42.600;23.476;2022-10-22T12:25:08;13.10;;;9.80;;
67941;SDS011;54731;42.600;23.476;2022-10-22T12:27:42;12.35;;;9.30;;
67941;SDS011;54731;42.600;23.476;2022-10-22T12:32:43;20.10;;;9.90;;
67941;SDS011;54731;42.600;23.476;2022-10-22T12:35:16;16.35;;;10.63;;
67941;SDS011;54731;42.600;23.476;2022-10-22T12:37:43;18.07;;;10.83;;
67941;SDS011;54731;42.600;23.476;2022-10-22T12:40:15;18.80;;;10.23;;
67941;SDS011;54731;42.600;23.476;2022-10-22T12:42:49;16.02;;;9.75;;
67941;SDS011;54731;42.600;23.476;2022-10-22T12:45:16;11.20;;;8.80;;
67941;SDS011;54731;42.600;23.476;2022-10-22T12:47:45;11.93;;;9.20;;
67941;SDS011;54731;42.600;23.476;2022-10-22T12:50:16;14.13;;;8.75;;
67941;SDS011;54731;42.600;23.476;2022-10-22T12:52:44;18.25;;;10.23;;
67941;SDS011;54731;42.600;23.476;2022-10-22T12:55:14;18.33;;;9.60;;
67941;SDS011;54731;42.600;23.476;2022-10-22T12:57:41;12.27;;;9.13;;
67941;SDS011;54731;42.600;23.476;2022-10-22T13:00:18;13.98;;;10.07;;
67941;SDS011;54731;42.600;23.476;2022-10-22T13:02:45;18.33;;;9.77;;
67941;SDS011;54731;42.600;23.476;2022-10-22T13:07:42;23.67;;;10.47;;
67941;SDS011;54731;42.600;23.476;2022-10-22T13:10:18;16.45;;;9.35;;
67941;SDS011;54731;42.600;23.476;2022-10-22T13:12:48;21.48;;;9.65;;
67941;SDS011;54731;42.600;23.476;2022-10-22T13:18:00;16.05;;;9.77;;
67941;SDS011;54731;42.600;23.476;2022-10-22T13:20:28;19.27;;;9.10;;
67941;SDS011;54731;42.600;23.476;2022-10-22T13:23:01;17.77;;;9.50;;
67941;SDS011;54731;42.600;23.476;2022-10-22T13:25:31;12.40;;;9.07;;
67941;SDS011;54731;42.600;23.476;2022-10-22T13:27:59;15.63;;;10.10;;
67941;SDS011;54731;42.600;23.476;2022-10-22T13:30:36;23.20;;;11.73;;
67941;SDS011;54731;42.600;23.476;2022-10-22T13:33:03;1071.13;;;741.33;;
67941;SDS011;54731;42.600;23.476;2022-10-22T13:35:32;564.97;;;397.17;;
67941;SDS011;54731;42.600;23.476;2022-10-22T13:37:59;411.70;;;279.25;;
67941;SDS011;54731;42.600;23.476;2022-10-22T13:40:25;553.57;;;491.73;;
67941;SDS011;54731;42.600;23.476;2022-10-22T13:42:51;391.65;;;323.27;;
67941;SDS011;54731;42.600;23.476;2022-10-22T13:45:17;222.20;;;197.67;;
67941;SDS011;54731;42.600;23.476;2022-10-22T13:47:44;128.00;;;115.80;;
67941;SDS011;54731;42.600;23.476;2022-10-22T13:50:14;58.08;;;52.42;;
67941;SDS011;54731;42.600;23.476;2022-10-22T13:52:49;30.40;;;27.30;;
67941;SDS011;54731;42.600;23.476;2022-10-22T13:55:17;20.75;;;17.08;;
67941;SDS011;54731;42.600;23.476;2022-10-22T13:57:47;21.93;;;13.50;;
67941;SDS011;54731;42.600;23.476;2022-10-22T14:00:14;11.05;;;9.27;;
67941;SDS011;54731;42.600;23.476;2022-10-22T14:02:42;23.42;;;11.75;;
67941;SDS011;54731;42.600;23.476;2022-10-22T14:05:10;23.70;;;12.10;;
67941;SDS011;54731;42.600;23.476;2022-10-22T14:07:35;13.43;;;9.70;;
67941;SDS011;54731;42.600;23.476;2022-10-22T14:10:02;16.02;;;14.18;;
67941;SDS011;54731;42.600;23.476;2022-10-22T14:12:36;45.72;;;38.38;;
67941;SDS011;54731;42.600;23.476;2022-10-22T14:15:02;34.60;;;26.30;;
67941;SDS011;54731;42.600;23.476;2022-10-22T14:17:27;19.40;;;15.20;;
67941;SDS011;54731;42.600;23.476;2022-10-22T14:19:53;13.82;;;10.00;;
67941;SDS011;54731;42.600;23.476;2022-10-22T14:22:19;35.27;;;16.67;;
67941;SDS011;54731;42.600;23.476;2022-10-22T14:24:44;16.83;;;9.93;;
67941;SDS011;54731;42.600;23.476;2022-10-22T14:27:11;17.48;;;12.60;;
67941;SDS011;54731;42.600;23.476;2022-10-22T14:29:38;27.38;;;15.50;;
67941;SDS011;54731;42.600;23.476;2022-10-22T14:32:17;36.20;;;21.70;;
67941;SDS011;54731;42.600;23.476;2022-10-22T14:34:43;16.25;;;11.00;;
67941;SDS011;54731;42.600;23.476;2022-10-22T14:37:18;25.83;;;9.40;;
67941;SDS011;54731;42.600;23.476;2022-10-22T14:39:44;14.55;;;9.90;;
67941;SDS011;54731;42.600;23.476;2022-10-22T14:42:12;17.08;;;9.10;;
67941;SDS011;54731;42.600;23.476;2022-10-22T14:44:37;12.90;;;9.77;;
67941;SDS011;54731;42.600;23.476;2022-10-22T14:47:03;15.13;;;9.53;;
67941;SDS011;54731;42.600;23.476;2022-10-22T14:49:28;25.40;;;14.43;;
67941;SDS011;54731;42.600;23.476;2022-10-22T14:51:53;23.40;;;14.73;;
67941;SDS011;54731;42.600;23.476;2022-10-22T14:54:19;18.07;;;11.13;;
67941;SDS011;54731;42.600;23.476;2022-10-22T14:56:44;18.07;;;9.40;;
67941;SDS011;54731;42.600;23.476;2022-10-22T14:59:09;13.43;;;9.20;;
67941;SDS011;54731;42.600;23.476;2022-10-22T15:01:35;63.23;;;31.70;;
67941;SDS011;54731;42.600;23.476;2022-10-22T15:04:00;22.23;;;11.87;;
67941;SDS011;54731;42.600;23.476;2022-10-22T15:06:25;48.00;;;34.57;;
67941;SDS011;54731;42.600;23.476;2022-10-22T15:08:50;46.50;;;41.60;;
67941;SDS011;54731;42.600;23.476;2022-10-22T15:11:16;66.03;;;59.03;;
67941;SDS011;54731;42.600;23.476;2022-10-22T15:13:41;68.47;;;61.80;;
67941;SDS011;54731;42.600;23.476;2022-10-22T15:16:07;32.10;;;22.60;;
67941;SDS011;54731;42.600;23.476;2022-10-22T15:18:34;28.73;;;22.40;;
67941;SDS011;54731;42.600;23.476;2022-10-22T15:21:04;36.60;;;28.95;;
67941;SDS011;54731;42.600;23.476;2022-10-22T15:23:38;36.00;;;28.13;;
67941;SDS011;54731;42.600;23.476;2022-10-22T15:26:05;40.20;;;31.17;;
67941;SDS011;54731;42.600;23.476;2022-10-22T15:28:35;34.47;;;20.77;;
67941;SDS011;54731;42.600;23.476;2022-10-22T15:31:01;25.55;;;13.18;;
67941;SDS011;54731;42.600;23.476;2022-10-22T15:33:27;29.13;;;18.17;;
67941;SDS011;54731;42.600;23.476;2022-10-22T15:35:52;32.47;;;19.27;;
67941;SDS011;54731;42.600;23.476;2022-10-22T15:38:19;37.33;;;27.00;;
67941;SDS011;54731;42.600;23.476;2022-10-22T15:40:44;27.95;;;16.90;;
67941;SDS011;54731;42.600;23.476;2022-10-22T15:43:10;28.75;;;17.80;;
67941;SDS011;54731;42.600;23.476;2022-10-22T15:45:37;140.23;;;84.00;;
67941;SDS011;54731;42.600;23.476;2022-10-22T15:48:03;81.80;;;61.88;;
67941;SDS011;54731;42.600;23.476;2022-10-22T15:50:28;98.17;;;76.00;;
67941;SDS011;54731;42.600;23.476;2022-10-22T15:52:54;93.38;;;51.63;;
67941;SDS011;54731;42.600;23.476;2022-10-22T15:55:20;54.85;;;23.75;;
67941;SDS011;54731;42.600;23.476;2022-10-22T15:57:45;24.50;;;16.13;;
67941;SDS011;54731;42.600;23.476;2022-10-22T16:00:11;45.80;;;26.63;;
67941;SDS011;54731;42.600;23.476;2022-10-22T16:02:36;24.33;;;15.70;;
67941;SDS011;54731;42.600;23.476;2022-10-22T16:05:02;20.53;;;11.10;;